Time;durP1;ratioP1;P1;durP2;ratioP2;P2;SDS_P1;SDS_P2;PMS_P1;PMS_P2;Temp;Humidity;BMP_temperature;BMP_pressure;BME280_temperature;BME280_humidity;BME280_pressure;Samples;Min_cycle;Max_cycle;Signal;HPM_P1;HPM_P2
2023/04/18 00:00:48;;;;;;;;;3.50;3.50;;;;;8.53;100.00;98723.91;4854260;28;101983;-72
2023/04/18 00:03:15;;;;;;;;;4.00;2.75;;;;;8.51;100.00;98726.78;4847878;28;103344;-71
2023/04/18 00:05:53;;;;;;;;;3.25;3.25;;;;;8.40;100.00;98699.47;4847605;28;101708;-72
2023/04/18 00:08:51;;;;;;;;;4.75;3.50;;;;;8.58;100.00;98726.06;4845479;28;101881;-71
2023/04/18 00:11:37;;;;;;;;;2.50;2.00;;;;;8.60;100.00;98727.53;4851469;28;103483;-71
2023/04/18 00:14:22;;;;;;;;;1.50;1.50;;;;;8.60;100.00;98730.22;4851580;28;103537;-72
2023/04/18 00:17:09;;;;;;;;;2.50;2.00;;;;;8.55;100.00;98716.50;4864809;28;101623;-71
2023/04/18 00:19:57;;;;;;;;;1.00;1.00;;;;;8.66;100.00;98729.47;4852426;28;101948;-71
2023/04/18 00:22:31;;;;;;;;;3.00;2.75;;;;;8.62;100.00;98728.19;4849980;28;102116;-72
2023/04/18 00:24:58;;;;;;;;;2.50;2.25;;;;;8.56;100.00;98722.69;4850776;28;102410;-71
2023/04/18 00:27:25;;;;;;;;;4.00;4.00;;;;;8.55;100.00;98721.03;4850009;28;101783;-71
2023/04/18 00:29:52;;;;;;;;;3.00;3.00;;;;;8.53;100.00;98734.69;4851578;28;101863;-72
2023/04/18 00:32:19;;;;;;;;;4.75;4.00;;;;;8.52;100.00;98727.63;4853665;28;101653;-72
2023/04/18 00:34:46;;;;;;;;;5.00;2.50;;;;;8.58;100.00;98728.75;4852382;28;103329;-72
2023/04/18 00:37:13;;;;;;;;;3.00;3.00;;;;;8.58;100.00;98729.59;4852152;28;102719;-72
2023/04/18 00:39:40;;;;;;;;;4.75;4.00;;;;;8.55;100.00;98721.88;4850776;28;106218;-72
2023/04/18 00:42:07;;;;;;;;;3.25;2.00;;;;;8.59;100.00;98725.88;4855084;28;101595;-72
2023/04/18 00:44:34;;;;;;;;;3.75;3.50;;;;;8.51;100.00;98720.53;4853550;28;103395;-72
2023/04/18 00:47:01;;;;;;;;;3.00;3.00;;;;;8.49;100.00;98718.06;4851205;28;101667;-71
2023/04/18 00:49:28;;;;;;;;;3.00;3.00;;;;;8.54;100.00;98725.59;4847984;28;102091;-72
2023/04/18 00:51:55;;;;;;;;;3.25;3.00;;;;;8.53;100.00;98723.91;4852155;28;101657;-72
2023/04/18 00:54:24;;;;;;;;;2.00;2.00;;;;;8.59;100.00;98725.03;4851887;28;108152;-72
2023/04/18 00:56:51;;;;;;;;;2.50;2.50;;;;;8.56;100.00;98731.63;4852677;28;101878;-72
2023/04/18 00:59:18;;;;;;;;;1.75;1.75;;;;;8.62;100.00;98722.78;4846828;28;101790;-72
2023/04/18 01:01:45;;;;;;;;;2.00;1.75;;;;;8.54;100.00;98709.41;4848464;28;101984;-72
2023/04/18 01:04:12;;;;;;;;;1.00;1.00;;;;;8.61;100.00;98710.34;4849059;28;103390;-71
2023/04/18 01:06:48;;;;;;;;;2.50;2.50;;;;;8.60;100.00;98714.03;4851097;28;101863;-72
2023/04/18 01:09:34;;;;;;;;;3.75;2.75;;;;;8.60;100.00;98713.25;4850059;28;101706;-72
2023/04/18 01:12:18;;;;;;;;;3.00;2.00;;;;;8.64;100.00;98718.06;4849117;28;101622;-71
2023/04/18 01:15:03;;;;;;;;;2.00;2.00;;;;;8.68;100.00;98727.47;4850540;28;107750;-71
2023/04/18 01:17:51;;;;;;;;;4.00;4.00;;;;;8.60;100.00;98722.13;4848187;28;101704;-72
2023/04/18 01:20:34;;;;;;;;;4.00;4.00;;;;;8.46;100.00;98704.13;4844644;28;101563;-72
2023/04/18 01:23:14;;;;;;;;;4.00;4.00;;;;;8.52;100.00;98719.53;4850932;28;101846;-72
2023/04/18 01:25:42;;;;;;;;;3.00;3.00;;;;;8.57;100.00;98719.81;4850109;28;103458;-72
2023/04/18 01:28:12;;;;;;;;;3.00;3.00;;;;;8.59;100.00;98717.78;4851120;28;101970;-71
2023/04/18 01:30:39;;;;;;;;;2.25;1.00;;;;;8.64;100.00;98712.69;4849381;28;101886;-72
2023/04/18 01:33:06;;;;;;;;;4.75;4.00;;;;;8.51;100.00;98709.75;4850375;28;101921;-72
2023/04/18 01:35:33;;;;;;;;;4.50;4.00;;;;;8.56;100.00;98715.44;4850242;28;103385;-71
2023/04/18 01:38:01;;;;;;;;;5.00;5.00;;;;;8.56;100.00;98715.44;4850445;28;102052;-72
2023/04/18 01:40:28;;;;;;;;;8.75;6.00;;;;;8.49;100.00;98717.22;4849554;28;101490;-72
2023/04/18 01:42:56;;;;;;;;;5.00;4.00;;;;;8.54;100.00;98722.91;4853244;28;102751;-71
2023/04/18 01:45:23;;;;;;;;;5.00;4.00;;;;;8.56;100.00;98720.00;4850044;28;107715;-71
2023/04/18 01:47:50;;;;;;;;;4.00;4.00;;;;;8.55;100.00;98713.78;4849508;28;102059;-71
2023/04/18 01:50:17;;;;;;;;;5.00;5.00;;;;;8.55;100.00;98721.88;4842281;28;101540;-72
2023/04/18 01:52:45;;;;;;;;;6.25;6.25;;;;;8.49;100.00;98718.06;4849858;28;101470;-72
2023/04/18 01:55:12;;;;;;;;;8.25;6.00;;;;;8.53;100.00;98723.91;4855085;28;103363;-72
2023/04/18 01:57:39;;;;;;;;;5.00;4.00;;;;;8.53;100.00;98721.22;4853485;28;102012;-71
2023/04/18 02:00:07;;;;;;;;;4.25;4.00;;;;;8.50;100.00;98716.22;4849900;28;102014;-71
2023/04/18 02:02:34;;;;;;;;;4.75;4.75;;;;;8.50;100.00;98713.50;4852047;28;102043;-72
2023/04/18 02:05:01;;;;;;;;;7.25;7.00;;;;;8.26;100.00;98670.63;4849911;28;104106;-72
2023/04/18 02:07:28;;;;;;;;;3.75;3.25;;;;;8.56;100.00;98718.13;4852020;28;101872;-71
2023/04/18 02:09:55;;;;;;;;;2.75;2.00;;;;;8.57;100.00;98717.13;4855703;28;102720;-71
2023/04/18 02:12:22;;;;;;;;;6.00;5.25;;;;;8.53;100.00;98713.13;4851386;28;101636;-71
2023/04/18 02:14:52;;;;;;;;;9.00;6.50;;;;;8.49;100.00;98718.06;4853070;28;103604;-72
2023/04/18 02:17:20;;;;;;;;;4.75;4.75;;;;;8.52;100.00;98714.16;4850371;28;101658;-71
2023/04/18 02:19:47;;;;;;;;;4.25;3.75;;;;;8.54;100.00;98712.13;4853924;28;101535;-72
2023/04/18 02:22:14;;;;;;;;;3.50;3.50;;;;;8.56;100.00;98711.91;4850046;28;101648;-71
2023/04/18 02:24:41;;;;;;;;;3.50;3.50;;;;;8.55;100.00;98721.03;4853415;28;106514;-71
2023/04/18 02:27:09;;;;;;;;;4.00;3.50;;;;;8.55;100.00;98716.50;4850850;28;102213;-72
2023/04/18 02:29:36;;;;;;;;;3.00;2.75;;;;;8.44;100.00;98687.28;4848580;28;101644;-71
2023/04/18 02:32:03;;;;;;;;;4.00;3.75;;;;;8.55;100.00;98721.03;4848274;28;101841;-71
2023/04/18 02:34:32;;;;;;;;;7.75;6.50;;;;;8.49;100.00;98707.28;4848229;28;103365;-72
2023/04/18 02:36:59;;;;;;;;;6.00;4.00;;;;;8.54;100.00;98714.81;4848504;28;101910;-71
2023/04/18 02:39:26;;;;;;;;;6.25;5.00;;;;;8.54;100.00;98709.41;4855740;28;102814;-71
2023/04/18 02:41:53;;;;;;;;;4.00;4.00;;;;;8.57;100.00;98719.81;4851179;28;101690;-71
2023/04/18 02:44:20;;;;;;;;;5.00;4.00;;;;;8.51;100.00;98707.06;4849462;28;103337;-72
2023/04/18 02:46:47;;;;;;;;;5.00;4.50;;;;;8.57;100.00;98719.81;4849934;28;101831;-72
2023/04/18 02:49:14;;;;;;;;;6.50;4.50;;;;;8.55;100.00;98713.78;4851219;28;101922;-72
2023/04/18 02:51:40;;;;;;;;;2.00;2.00;;;;;8.59;100.00;98715.09;4853589;28;102334;-72
2023/04/18 02:54:07;;;;;;;;;7.75;7.00;;;;;8.58;100.00;98720.66;4845032;28;103349;-72
2023/04/18 02:56:38;;;;;;;;;4.25;3.50;;;;;8.55;100.00;98721.03;4849727;28;101820;-71
2023/04/18 02:59:06;;;;;;;;;3.25;3.00;;;;;8.59;100.00;98717.78;4852518;28;101958;-71
2023/04/18 03:01:33;;;;;;;;;7.00;4.50;;;;;8.49;100.00;98723.44;4849795;28;101803;-71
2023/04/18 03:04:00;;;;;;;;;6.25;6.25;;;;;8.52;100.00;98727.63;4851107;28;103392;-71
2023/04/18 03:06:27;;;;;;;;;5.00;4.75;;;;;8.57;100.00;98718.97;4846720;28;103163;-72
2023/04/18 03:08:54;;;;;;;;;5.50;4.50;;;;;8.60;100.00;98729.41;4853970;28;101598;-71
2023/04/18 03:11:21;;;;;;;;;5.75;5.75;;;;;8.52;100.00;98728.47;4853282;28;101896;-71
2023/04/18 03:13:48;;;;;;;;;8.00;5.00;;;;;8.55;100.00;98721.03;4847875;28;103361;-71
2023/04/18 03:16:15;;;;;;;;;6.75;6.75;;;;;8.55;100.00;98727.28;4846526;28;102127;-71
2023/04/18 03:18:42;;;;;;;;;7.00;7.00;;;;;8.55;100.00;98721.88;4852884;28;101933;-72
2023/04/18 03:21:10;;;;;;;;;9.00;8.00;;;;;8.58;100.00;98726.88;4852624;28;102008;-72
2023/04/18 03:23:37;;;;;;;;;9.00;8.25;;;;;8.48;100.00;98718.22;4848574;28;103411;-71
2023/04/18 03:26:07;;;;;;;;;4.50;4.00;;;;;8.61;100.00;98729.19;4848571;28;102394;-71
2023/04/18 03:28:34;;;;;;;;;7.75;6.75;;;;;8.63;100.00;98732.56;4851910;28;101678;-71
2023/04/18 03:31:01;;;;;;;;;8.50;8.00;;;;;8.55;100.00;98721.03;4852457;28;102127;-71
2023/04/18 03:33:28;;;;;;;;;9.00;8.00;;;;;8.62;100.00;98721.97;4848094;28;103454;-71
2023/04/18 03:35:55;;;;;;;;;5.00;5.00;;;;;8.65;100.00;98729.66;4852151;28;102065;-71
2023/04/18 03:38:22;;;;;;;;;7.00;5.25;;;;;8.64;100.00;98731.56;4851925;28;101601;-71
2023/04/18 03:40:49;;;;;;;;;8.00;7.25;;;;;8.62;100.00;98732.75;4850882;28;101654;-72
2023/04/18 03:43:19;;;;;;;;;10.75;9.00;;;;;8.60;100.00;98732.91;4852208;28;103352;-71
2023/04/18 03:45:47;;;;;;;;;6.00;5.00;;;;;8.63;100.00;98727.16;4844704;28;103518;-72
2023/04/18 03:48:14;;;;;;;;;10.00;9.25;;;;;8.59;100.00;98723.19;4846519;28;101684;-71
2023/04/18 03:50:41;;;;;;;;;8.00;7.50;;;;;8.63;100.00;98740.66;4852308;28;102023;-72
2023/04/18 03:53:08;;;;;;;;;10.75;8.00;;;;;8.62;100.00;98732.75;4850877;28;103467;-71
2023/04/18 03:55:35;;;;;;;;;10.00;9.00;;;;;8.59;100.00;98733.13;4849370;28;101998;-71
2023/04/18 03:58:02;;;;;;;;;11.75;10.25;;;;;8.62;100.00;98738.97;4848432;28;101944;-71
2023/04/18 04:00:29;;;;;;;;;10.00;9.25;;;;;8.59;100.00;98743.91;4848642;28;101649;-71
2023/04/18 04:02:56;;;;;;;;;18.00;14.75;;;;;8.50;100.00;98735.06;4851404;28;103532;-71
2023/04/18 04:05:23;;;;;;;;;11.00;10.00;;;;;8.59;100.00;98750.13;4849167;28;101696;-71
2023/04/18 04:07:50;;;;;;;;;16.75;16.00;;;;;8.57;100.00;98752.16;4845368;28;101892;-71
2023/04/18 04:10:17;;;;;;;;;14.00;11.75;;;;;8.58;100.00;98748.44;4848922;28;103095;-71
2023/04/18 04:12:45;;;;;;;;;14.25;10.75;;;;;8.60;100.00;98761.75;4851460;28;103410;-71
2023/04/18 04:15:12;;;;;;;;;14.25;12.00;;;;;8.60;100.00;98772.53;4847610;28;101582;-71
2023/04/18 04:17:39;;;;;;;;;17.50;16.00;;;;;8.57;100.00;98773.72;4847564;28;101742;-72
2023/04/18 04:20:06;;;;;;;;;21.00;17.75;;;;;8.52;100.00;98773.44;4849894;28;101861;-71
2023/04/18 04:22:33;;;;;;;;;17.50;16.00;;;;;8.54;100.00;98779.50;4851222;28;103377;-71
2023/04/18 04:25:01;;;;;;;;;16.75;15.25;;;;;8.59;100.00;98776.25;4848758;28;101924;-71
2023/04/18 04:27:28;;;;;;;;;20.50;18.50;;;;;8.59;100.00;98768.16;4844471;28;101811;-71
2023/04/18 04:29:55;;;;;;;;;16.25;12.00;;;;;8.61;100.00;98772.31;4851597;28;101600;-71
2023/04/18 04:32:23;;;;;;;;;17.75;15.50;;;;;8.65;100.00;98773.63;4848774;28;107903;-71
2023/04/18 04:34:51;;;;;;;;;16.00;16.00;;;;;8.69;100.00;98776.81;4852153;28;101647;-71
2023/04/18 04:37:20;;;;;;;;;17.50;14.25;;;;;8.57;100.00;98757.56;4847165;28;101889;-71
2023/04/18 04:39:47;;;;;;;;;23.50;19.00;;;;;8.62;100.00;98782.09;4849776;28;101544;-72
2023/04/18 04:42:14;;;;;;;;;20.25;17.75;;;;;8.71;100.00;98791.78;4846655;28;103379;-72
2023/04/18 04:44:41;;;;;;;;;19.50;16.00;;;;;8.78;100.00;98792.69;4850244;28;101837;-72
2023/04/18 04:47:08;;;;;;;;;17.00;13.00;;;;;8.77;100.00;98788.34;4846851;28;101762;-72
2023/04/18 04:49:35;;;;;;;;;28.25;21.25;;;;;8.63;100.00;98772.16;4846015;28;102056;-72
2023/04/18 04:52:02;;;;;;;;;20.75;17.50;;;;;8.71;100.00;98786.38;4848047;28;103382;-72
2023/04/18 04:54:29;;;;;;;;;25.25;18.50;;;;;8.81;100.00;98795.03;4851365;28;101969;-72
2023/04/18 04:56:56;;;;;;;;;19.25;18.75;;;;;8.81;100.00;98786.09;4855221;28;101844;-72
2023/04/18 04:59:23;;;;;;;;;18.50;18.25;;;;;8.90;100.00;98801.19;4847362;28;101921;-73
2023/04/18 05:01:53;;;;;;;;;14.50;14.00;;;;;8.98;100.00;98792.16;4850799;28;103373;-72
2023/04/18 05:04:24;;;;;;;;;21.00;18.00;;;;;9.02;100.00;98798.84;4872210;28;101673;-72
2023/04/18 05:06:51;;;;;;;;;18.75;18.75;;;;;9.05;100.00;98798.50;4853225;28;101534;-72
2023/04/18 05:09:19;;;;;;;;;21.75;20.50;;;;;9.06;100.00;98802.84;4847790;28;101965;-72
2023/04/18 05:11:48;;;;;;;;;23.50;19.25;;;;;9.17;100.00;98802.38;4848530;28;103412;-73
2023/04/18 05:14:16;;;;;;;;;23.50;21.00;;;;;9.13;100.00;98803.78;4851098;28;101485;-72
2023/04/18 05:16:43;;;;;;;;;20.25;17.50;;;;;9.16;100.00;98812.34;4853863;28;101583;-72
2023/04/18 05:19:10;;;;;;;;;20.50;17.25;;;;;9.32;100.00;98805.91;4836634;28;101815;-72
2023/04/18 05:21:37;;;;;;;;;22.00;18.75;;;;;9.22;100.00;98819.69;4845261;28;103378;-72
2023/04/18 05:24:04;;;;;;;;;19.50;17.00;;;;;9.23;100.00;98809.75;4850765;28;101918;-72
2023/04/18 05:26:31;;;;;;;;;24.00;19.00;;;;;9.33;100.00;98819.19;4851229;28;102089;-72
2023/04/18 05:28:58;;;;;;;;;19.00;18.00;;;;;9.35;100.00;98816.31;4853419;28;101533;-72
2023/04/18 05:31:25;;;;;;;;;18.75;18.00;;;;;9.40;100.00;98824.69;4846468;28;103355;-72
2023/04/18 05:33:55;;;;;;;;;21.75;19.50;;;;;9.44;100.00;98826.00;4849759;28;102086;-72
2023/04/18 05:36:22;;;;;;;;;24.25;22.50;;;;;9.30;100.00;98833.06;4850045;28;101772;-72
2023/04/18 05:38:49;;;;;;;;;30.75;25.00;;;;;9.35;100.00;98832.50;4856064;28;101601;-72
2023/04/18 05:41:16;;;;;;;;;22.75;18.75;;;;;9.35;100.00;98836.06;4846116;28;103400;-72
2023/04/18 05:43:43;;;;;;;;;24.00;19.25;;;;;9.31;100.00;98836.63;4849917;28;101926;-73
2023/04/18 05:46:27;;;;;;;;;19.75;17.50;;;;;9.42;100.00;98841.53;4850047;28;101804;-72
2023/04/18 05:48:55;;;;;;;;;25.00;20.50;;;;;9.38;100.00;98848.31;4853833;28;104014;-73
2023/04/18 05:51:22;;;;;;;;;19.50;19.50;;;;;9.44;100.00;98844.88;4848177;28;108029;-72
2023/04/18 05:53:49;;;;;;;;;22.50;21.75;;;;;9.52;100.00;98847.47;4852455;28;102078;-72
2023/04/18 05:56:16;;;;;;;;;22.25;19.25;;;;;9.56;100.00;98856.03;4847529;28;102143;-71
2023/04/18 05:58:46;;;;;;;;;22.75;22.25;;;;;9.59;100.00;98845.69;4854690;28;101642;-71
2023/04/18 06:01:13;;;;;;;;;27.00;20.00;;;;;9.55;100.00;98852.47;4848695;28;103413;-74
2023/04/18 06:03:40;;;;;;;;;19.25;18.50;;;;;9.65;100.00;98839.53;4849460;28;102017;-72
2023/04/18 06:06:08;;;;;;;;;21.25;20.75;;;;;9.77;100.00;98850.69;4847651;28;101986;-73
2023/04/18 06:08:37;;;;;;;;;20.75;18.50;;;;;9.69;100.00;98850.78;4851485;28;101643;-72
2023/04/18 06:11:04;;;;;;;;;22.00;19.00;;;;;9.73;99.37;98850.22;4850749;28;103358;-73
2023/04/18 06:13:31;;;;;;;;;26.00;18.75;;;;;9.74;100.00;98849.19;4845798;28;101995;-72
2023/04/18 06:15:59;;;;;;;;;17.00;15.00;;;;;10.00;99.51;98850.50;4847601;28;101640;-72
2023/04/18 06:18:26;;;;;;;;;18.75;18.75;;;;;9.99;97.44;98847.00;4855795;28;102250;-72
2023/04/18 06:20:53;;;;;;;;;27.50;24.25;;;;;9.96;98.59;98857.31;4854423;28;108625;-72
2023/04/18 06:23:20;;;;;;;;;23.75;20.25;;;;;10.04;98.87;98854.53;4850219;28;101826;-72
2023/04/18 06:25:47;;;;;;;;;25.50;24.00;;;;;10.00;98.59;98850.50;4849929;28;102085;-73
2023/04/18 06:28:15;;;;;;;;;24.50;22.50;;;;;10.05;97.12;98867.00;4853761;28;102467;-72
2023/04/18 06:30:42;;;;;;;;;20.75;20.25;;;;;10.03;97.57;98864.50;4846405;28;103337;-72
2023/04/18 06:33:09;;;;;;;;;24.50;20.75;;;;;10.15;95.77;98867.53;4846772;28;101937;-72
2023/04/18 06:35:37;;;;;;;;;30.25;27.50;;;;;10.12;94.84;98868.75;4849781;28;102170;-72
2023/04/18 06:38:04;;;;;;;;;32.50;26.25;;;;;10.00;94.48;98872.13;4853648;28;101604;-72
2023/04/18 06:40:31;;;;;;;;;24.75;22.00;;;;;10.10;95.53;98864.56;4845523;28;103651;-72
2023/04/18 06:42:58;;;;;;;;;18.25;16.25;;;;;10.55;96.25;98872.31;4847936;28;101683;-72
2023/04/18 06:45:25;;;;;;;;;22.75;20.50;;;;;10.77;93.42;98869.59;4851248;28;102289;-72
2023/04/18 06:47:52;;;;;;;;;25.75;24.00;;;;;10.45;90.39;98885.31;4853693;28;102151;-72
2023/04/18 06:50:19;;;;;;;;;22.75;21.25;;;;;10.40;91.78;98882.34;4850825;28;103396;-71
2023/04/18 06:52:46;;;;;;;;;21.50;20.00;;;;;10.48;92.48;98884.94;4846916;28;101591;-72
2023/04/18 06:55:13;;;;;;;;;26.25;21.00;;;;;10.74;91.65;98885.19;4849894;28;101571;-72
2023/04/18 06:57:41;;;;;;;;;22.00;21.25;;;;;10.93;87.84;98872.03;4851505;28;101625;-72
2023/04/18 07:00:09;;;;;;;;;28.00;23.00;;;;;10.88;91.87;98888.00;4852933;28;103127;-73
2023/04/18 07:02:37;;;;;;;;;19.75;18.75;;;;;11.00;89.79;98889.97;4847361;28;101541;-72
2023/04/18 07:05:05;;;;;;;;;23.25;21.25;;;;;10.96;90.61;98885.13;4846544;28;101581;-72
2023/04/18 07:07:33;;;;;;;;;20.50;19.75;;;;;11.06;89.38;98889.19;4850473;28;102083;-72
2023/04/18 07:10:00;;;;;;;;;30.75;26.50;;;;;10.79;91.29;98887.31;4849214;28;103334;-72
2023/04/18 07:12:27;;;;;;;;;23.00;21.50;;;;;11.02;90.07;98889.78;4849129;28;101786;-72
2023/04/18 07:14:54;;;;;;;;;22.75;19.50;;;;;11.22;87.87;98889.91;4849996;28;101870;-72
2023/04/18 07:17:21;;;;;;;;;20.75;18.75;;;;;11.41;89.50;98892.75;4851616;28;101980;-72
2023/04/18 07:19:48;;;;;;;;;24.50;21.25;;;;;11.31;85.59;98896.81;4850256;28;104343;-73
2023/04/18 07:22:15;;;;;;;;;25.75;21.25;;;;;11.42;86.01;98891.72;4854539;28;101858;-72
2023/04/18 07:24:42;;;;;;;;;20.25;20.00;;;;;11.23;86.96;98895.13;4842547;28;103481;-72
2023/04/18 07:27:09;;;;;;;;;23.25;21.00;;;;;11.35;86.77;98898.09;4848717;28;102099;-72
2023/04/18 07:29:36;;;;;;;;;24.00;22.50;;;;;11.33;86.34;98898.31;4849908;28;103376;-72
2023/04/18 07:32:03;;;;;;;;;21.00;19.50;;;;;11.37;87.23;98890.63;4851442;28;101543;-73
2023/04/18 07:34:35;;;;;;;;;22.75;21.50;;;;;11.43;85.56;98896.09;4844590;28;102136;-73
2023/04/18 07:37:02;;;;;;;;;18.25;17.75;;;;;11.52;85.63;98894.91;4847584;28;101939;-73
2023/04/18 07:39:34;;;;;;;;;20.00;19.25;;;;;11.83;85.96;98890.91;4848479;28;103223;-73
2023/04/18 07:42:05;;;;;;;;;13.50;13.00;;;;;12.17;84.79;98900.81;4852460;28;101665;-73
2023/04/18 07:44:34;;;;;;;;;21.75;20.25;;;;;12.17;84.37;98903.53;4845622;28;102047;-72
2023/04/18 07:47:02;;;;;;;;;22.25;21.25;;;;;12.15;80.75;98901.03;4848425;28;102852;-72
2023/04/18 07:49:29;;;;;;;;;23.75;22.00;;;;;11.70;81.45;98909.78;4849342;28;104513;-72
2023/04/18 07:51:56;;;;;;;;;22.75;20.00;;;;;11.61;81.88;98915.38;4853447;28;102340;-72
2023/04/18 07:54:23;;;;;;;;;22.75;20.75;;;;;11.54;83.28;98913.63;4844780;28;101857;-72
2023/04/18 07:56:50;;;;;;;;;21.75;20.50;;;;;11.69;84.12;98910.81;4848331;28;101927;-73
2023/04/18 07:59:17;;;;;;;;;22.75;19.75;;;;;11.81;80.30;98914.66;4847625;28;103455;-71
2023/04/18 08:01:44;;;;;;;;;14.75;10.50;;;;;11.95;81.26;98924.50;4850185;28;101804;-72
2023/04/18 08:04:12;;;;;;;;;24.50;21.00;;;;;11.89;85.37;98925.31;4850903;28;101764;-73
2023/04/18 08:06:39;;;;;;;;;24.00;19.75;;;;;11.85;81.94;98915.91;4845953;28;102755;-72
2023/04/18 08:09:07;;;;;;;;;22.00;19.00;;;;;11.80;83.96;98912.97;4845090;28;103476;-73
2023/04/18 08:11:34;;;;;;;;;21.75;19.50;;;;;12.01;82.04;98919.13;4848949;28;101609;-73
2023/04/18 08:14:01;;;;;;;;;17.00;15.25;;;;;11.97;81.71;98914.31;4852063;28;101667;-74
2023/04/18 08:16:28;;;;;;;;;21.00;19.50;;;;;12.06;79.56;98923.94;4847603;28;101969;-73
2023/04/18 08:18:54;;;;;;;;;17.25;15.75;;;;;12.19;78.00;98920.44;4851238;28;103571;-72
2023/04/18 08:21:21;;;;;;;;;18.25;16.75;;;;;12.28;78.80;98927.34;4849169;28;101610;-73
2023/04/18 08:23:48;;;;;;;;;17.75;15.25;;;;;12.48;76.96;98923.66;4850849;28;101787;-72
2023/04/18 08:26:15;;;;;;;;;24.00;19.00;;;;;12.55;78.14;98922.84;4841884;28;101912;-73
2023/04/18 08:28:43;;;;;;;;;17.50;15.25;;;;;12.78;77.00;98931.44;4850694;28;106869;-73
2023/04/18 08:31:13;;;;;;;;;14.00;13.25;;;;;12.95;77.01;98914.53;4849312;28;101991;-73
2023/04/18 08:33:41;;;;;;;;;18.00;15.75;;;;;13.06;77.36;98932.06;4852629;28;101498;-73
2023/04/18 08:36:08;;;;;;;;;22.00;18.75;;;;;12.93;76.07;98921.19;4851631;28;102026;-73
2023/04/18 08:38:35;;;;;;;;;14.00;13.00;;;;;13.12;75.88;98904.09;4848257;28;103301;-73
2023/04/18 08:41:02;;;;;;;;;18.00;16.50;;;;;13.34;75.48;98916.41;4851818;28;101630;-73
2023/04/18 08:43:30;;;;;;;;;17.50;16.25;;;;;13.54;74.20;98920.97;4850525;28;101426;-73
2023/04/18 08:45:58;;;;;;;;;17.50;15.75;;;;;13.35;73.53;98928.94;4858650;28;101645;-73
2023/04/18 08:48:27;;;;;;;;;17.00;14.00;;;;;13.30;74.16;98917.88;4850758;28;108057;-72
2023/04/18 08:50:58;;;;;;;;;15.75;14.25;;;;;13.77;71.49;98922.19;4854753;28;101555;-73
2023/04/18 08:53:26;;;;;;;;;15.50;14.25;;;;;14.08;70.80;98916.00;4852722;28;102721;-73
2023/04/18 08:55:56;;;;;;;;;16.00;14.00;;;;;13.66;74.76;98927.44;4853857;28;101872;-72
2023/04/18 08:58:26;;;;;;;;;13.00;13.00;;;;;13.71;72.79;98914.88;4848589;28;107989;-72
2023/04/18 09:00:54;;;;;;;;;15.50;13.00;;;;;13.92;71.27;98921.91;4844468;28;101596;-73
2023/04/18 09:03:41;;;;;;;;;14.50;14.00;;;;;13.69;69.33;98918.84;4853459;28;101613;-73
2023/04/18 09:06:12;;;;;;;;;13.50;12.50;;;;;13.99;69.13;98932.78;4851662;28;102058;-73
2023/04/18 09:08:41;;;;;;;;;15.75;14.00;;;;;14.19;68.48;98915.31;4849006;28;103223;-73
2023/04/18 09:11:27;;;;;;;;;15.00;14.00;;;;;14.05;69.24;98924.56;4850515;28;102063;-73
2023/04/18 09:13:57;;;;;;;;;15.00;14.00;;;;;14.13;68.15;98918.06;4851470;28;101790;-73
2023/04/18 09:16:26;;;;;;;;;13.25;9.50;;;;;14.59;66.46;98923.31;4847402;28;101894;-73
2023/04/18 09:19:16;;;;;;;;;9.75;9.75;;;;;14.60;65.88;98925.78;4845668;28;108111;-73
2023/04/18 09:21:47;;;;;;;;;12.50;11.25;;;;;14.54;64.73;98917.69;4849488;28;101555;-73
2023/04/18 09:24:17;;;;;;;;;14.00;10.50;;;;;14.95;60.96;98900.84;4853282;28;101604;-73
2023/04/18 09:26:44;;;;;;;;;14.25;11.75;;;;;14.76;60.36;98910.84;4855354;28;102719;-73
2023/04/18 09:29:11;;;;;;;;;11.50;10.00;;;;;14.67;64.66;98915.72;4844858;28;103364;-71
2023/04/18 09:32:00;;;;;;;;;15.75;12.00;;;;;14.38;66.72;98921.75;4852328;28;101990;-72
2023/04/18 09:34:28;;;;;;;;;11.00;10.00;;;;;14.60;64.17;98923.06;4850954;28;102002;-72
2023/04/18 09:37:24;;;;;;;;;11.25;10.50;;;;;14.54;63.92;98920.41;4857168;28;101544;-72
2023/04/18 09:39:51;;;;;;;;;13.50;12.25;;;;;14.50;67.18;98913.75;4836064;28;107829;-72
2023/04/18 09:42:19;;;;;;;;;10.50;9.50;;;;;14.91;63.64;98908.63;4850789;28;103118;-72
2023/04/18 09:45:05;;;;;;;;;11.00;10.50;;;;;15.29;62.59;98911.25;4849866;28;101593;-72
2023/04/18 09:47:36;;;;;;;;;11.25;10.50;;;;;15.30;64.88;98922.97;4852615;28;101686;-72
2023/04/18 09:50:04;;;;;;;;;13.00;12.25;;;;;15.40;57.94;98913.22;4848604;28;103357;-74
2023/04/18 09:52:36;;;;;;;;;9.00;9.00;;;;;15.27;59.91;98918.78;4853452;28;101869;-73
2023/04/18 09:55:09;;;;;;;;;13.00;11.25;;;;;15.52;60.62;98913.34;4853120;28;101933;-73
2023/04/18 09:57:40;;;;;;;;;9.75;8.75;;;;;15.59;58.36;98912.22;4854638;28;101625;-73
2023/04/18 10:00:19;;;;;;;;;12.00;11.00;;;;;15.30;59.45;98909.34;4846642;28;103443;-72
2023/04/18 10:03:07;;;;;;;;;11.50;11.50;;;;;14.90;59.21;98922.47;4852037;28;101546;-73
2023/04/18 10:05:37;;;;;;;;;12.75;11.50;;;;;14.95;59.31;98914.47;4849642;28;101724;-73
2023/04/18 10:08:05;;;;;;;;;13.00;13.00;;;;;14.54;60.41;98909.53;4851888;28;101977;-74
2023/04/18 10:10:32;;;;;;;;;10.33;9.00;;;;;14.93;58.71;98917.41;4851456;28;103437;-72
2023/04/18 10:13:01;;;;;;;;;12.25;12.00;;;;;15.38;60.01;98911.78;4850022;28;101898;-72
2023/04/18 10:15:30;;;;;;;;;13.50;12.50;;;;;15.17;55.81;98905.66;4852170;28;101677;-72
2023/04/18 10:18:00;;;;;;;;;13.00;13.00;;;;;15.43;57.33;98909.22;4853738;28;101591;-73
2023/04/18 10:20:33;;;;;;;;;9.75;9.75;;;;;15.43;56.53;98906.50;4848539;28;108254;-73
2023/04/18 10:23:29;;;;;;;;;11.75;10.25;;;;;15.28;55.58;98906.00;4849756;28;101620;-72
2023/04/18 10:25:57;;;;;;;;;16.25;13.00;;;;;15.41;55.13;98903.16;4847683;28;102357;-72
2023/04/18 10:28:26;;;;;;;;;12.00;10.00;;;;;15.60;56.34;98905.72;4854802;28;101811;-72
2023/04/18 10:31:01;;;;;;;;;10.00;9.00;;;;;15.85;53.18;98902.09;4848549;28;107539;-73
2023/04/18 10:33:36;;;;;;;;;11.00;10.00;;;;;15.68;53.56;98904.56;4846803;28;101708;-72
2023/04/18 10:36:08;;;;;;;;;14.00;12.67;;;;;15.72;56.30;98903.06;4847277;28;101619;-72
2023/04/18 10:38:44;;;;;;;;;9.00;9.00;;;;;15.86;54.63;98887.38;4854813;28;101833;-72
2023/04/18 10:41:19;;;;;;;;;14.67;9.67;;;;;15.86;54.83;98893.66;4841375;28;103556;-73
2023/04/18 10:44:08;;;;;;;;;10.00;10.00;;;;;15.55;55.00;98893.81;4850499;28;101694;-73
2023/04/18 10:46:39;;;;;;;;;10.33;8.33;;;;;15.70;57.64;98896.19;4851184;28;101630;-73
2023/04/18 10:49:15;;;;;;;;;12.50;10.75;;;;;15.54;54.60;98894.88;4851911;28;102533;-71
2023/04/18 10:51:48;;;;;;;;;7.00;7.00;;;;;15.13;55.49;98888.09;4845556;28;103314;-73
2023/04/18 10:54:34;;;;;;;;;10.33;9.67;;;;;15.15;53.53;98886.00;4850393;28;101487;-72
2023/04/18 10:57:03;;;;;;;;;10.00;8.33;;;;;15.10;56.07;98879.56;4847762;28;101809;-71
2023/04/18 10:59:32;;;;;;;;;12.25;10.50;;;;;15.22;56.31;98883.19;4848216;28;101703;-71
2023/04/18 11:02:19;;;;;;;;;10.33;10.00;;;;;15.49;60.53;98883.81;4846342;28;103449;-72
2023/04/18 11:04:54;;;;;;;;;11.75;11.25;;;;;15.42;55.02;98880.28;4851900;28;101827;-72
2023/04/18 11:07:32;;;;;;;;;10.00;10.00;;;;;15.20;55.58;98879.88;4851400;28;101586;-72
2023/04/18 11:10:05;;;;;;;;;7.00;7.00;;;;;15.36;58.30;98892.91;4846958;28;102087;-72
2023/04/18 11:12:37;;;;;;;;;14.00;11.00;;;;;15.35;57.68;98890.44;4844538;28;102193;-72
2023/04/18 11:15:13;;;;;;;;;10.50;10.00;;;;;15.36;54.70;98873.84;4846699;28;101606;-72
2023/04/18 11:17:40;;;;;;;;;10.67;10.67;;;;;15.11;56.48;98887.50;4850100;28;101515;-72
2023/04/18 11:20:10;;;;;;;;;10.00;9.33;;;;;15.19;53.28;98881.78;4852796;28;101652;-72
2023/04/18 11:22:47;;;;;;;;;8.00;7.00;;;;;15.22;53.33;98866.06;4849051;28;103368;-72
2023/04/18 11:25:15;;;;;;;;;10.00;9.00;;;;;15.29;54.93;98866.81;4850803;28;101862;-72